Time,TemperatureF,DewpointF,PressureIn,WindDirection,WindDirectionDegrees,WindSpeedMPH,WindSpeedGustMPH,Humidity,HourlyPrecipIn,Conditions,Clouds,dailyrainin,SolarRadiationWatts/m^2,SoftwareType,DateUTC
2013-03-10 00:11:00,48.0,38.0,-100.00,ESE,111,4.0,6.0,68,-99.99,,,-99.99,0.000000,,2013-03-10 08:11:00,
2013-03-10 01:11:00,48.0,38.0,-100.00,SE,131,3.0,6.0,68,0.00,,,0.00,0.000000,,2013-03-10 09:11:00,
2013-03-10 01:21:00,48.0,38.0,-100.00,SE,131,3.0,6.0,68,0.00,,,0.00,0.000000,,2013-03-10 09:21:00,
2013-03-10 01:31:00,48.0,38.0,-100.00,SE,131,3.0,6.0,68,0.00,,,0.00,0.000000,,2013-03-10 09:31:00,
2013-03-10 01:41:00,48.0,38.0,-100.00,SE,131,3.0,6.0,68,0.00,,,0.00,0.000000,,2013-03-10 09:41:00,
2013-03-10 03:11:00,43.0,35.0,-100.00,ESE,116,3.0,4.0,74,0.00,,,0.00,0.000000,,2013-03-10 10:11:00,
2013-03-10 04:11:00,39.0,32.0,-100.00,NNE,13,3.0,5.0,76,-99.99,,,0.00,0.000000,,2013-03-10 11:11:00,
2013-03-10 07:11:00,42.0,36.0,-100.00,NW,323,6.0,8.0,79,-99.99,,,0.00,0.000000,,2013-03-10 14:11:00,
2013-03-10 08:11:00,49.0,36.0,-100.00,North,355,6.0,8.0,61,-99.99,,,0.00,50.000000,,2013-03-10 15:11:00,
2013-03-10 08:21:00,49.0,36.0,-100.00,North,355,6.0,8.0,61,-99.99,,,0.00,50.000000,,2013-03-10 15:21:00,
2013-03-10 08:31:00,49.0,36.0,-100.00,North,355,6.0,8.0,61,-99.99,,,0.00,50.000000,,2013-03-10 15:31:00,
2013-03-10 08:41:00,49.0,36.0,-100.00,North,355,6.0,8.0,61,-99.99,,,0.00,50.000000,,2013-03-10 15:41:00,
2013-03-10 09:11:00,57.0,36.0,-100.00,NW,323,7.0,9.0,45,0.00,,,0.00,316.000000,,2013-03-10 16:11:00,
2013-03-10 09:21:00,57.0,36.0,-100.00,NW,323,7.0,9.0,45,0.00,,,0.00,316.000000,,2013-03-10 16:21:00,
2013-03-10 09:31:00,57.0,36.0,-100.00,NW,323,7.0,9.0,45,0.00,,,0.00,316.000000,,2013-03-10 16:31:00,
2013-03-10 09:41:00,57.0,36.0,-100.00,NW,323,7.0,9.0,45,0.00,,,0.00,316.000000,,2013-03-10 16:41:00,
2013-03-10 11:11:00,67.0,35.0,-100.00,North,10,10.0,16.0,31,-99.99,,,0.00,771.000000,,2013-03-10 18:11:00,
2013-03-10 11:21:00,67.0,35.0,-100.00,North,10,10.0,16.0,31,-99.99,,,0.00,771.000000,,2013-03-10 18:21:00,
2013-03-10 11:31:00,67.0,35.0,-100.00,North,10,10.0,16.0,31,-99.99,,,0.00,771.000000,,2013-03-10 18:31:00,
2013-03-10 11:41:00,67.0,35.0,-100.00,North,10,10.0,16.0,31,-99.99,,,0.00,771.000000,,2013-03-10 18:41:00,
2013-03-10 12:11:00,70.0,29.0,-100.00,North,4,12.0,25.0,22,0.00,,,0.00,915.000000,,2013-03-10 19:11:00,
2013-03-10 12:21:00,70.0,29.0,-100.00,North,4,12.0,25.0,22,0.00,,,0.00,915.000000,,2013-03-10 19:21:00,
2013-03-10 12:31:00,70.0,29.0,-100.00,North,4,12.0,25.0,22,0.00,,,0.00,915.000000,,2013-03-10 19:31:00,
2013-03-10 12:41:00,70.0,29.0,-100.00,North,4,12.0,25.0,22,0.00,,,0.00,915.000000,,2013-03-10 19:41:00,
2013-03-10 13:12:00,72.0,29.0,-100.00,North,2,11.0,20.0,20,0.00,,,0.00,988.000000,,2013-03-10 20:12:00,
2013-03-10 13:22:00,72.0,29.0,-100.00,North,2,11.0,20.0,20,0.00,,,0.00,988.000000,,2013-03-10 20:22:00,
2013-03-10 13:32:00,72.0,29.0,-100.00,North,2,11.0,20.0,20,0.00,,,0.00,988.000000,,2013-03-10 20:32:00,
2013-03-10 13:42:00,72.0,29.0,-100.00,North,2,11.0,20.0,20,0.00,,,0.00,988.000000,,2013-03-10 20:42:00,
2013-03-10 14:12:00,74.0,26.0,-100.00,North,356,11.0,19.0,17,0.00,,,0.00,978.000000,,2013-03-10 21:12:00,
2013-03-10 14:22:00,74.0,26.0,-100.00,North,356,11.0,19.0,17,0.00,,,0.00,978.000000,,2013-03-10 21:22:00,
2013-03-10 14:32:00,74.0,26.0,-100.00,North,356,11.0,19.0,17,0.00,,,0.00,978.000000,,2013-03-10 21:32:00,
2013-03-10 14:42:00,74.0,26.0,-100.00,North,356,11.0,19.0,17,0.00,,,0.00,978.000000,,2013-03-10 21:42:00,
2013-03-10 15:12:00,75.0,24.0,-100.00,North,356,11.0,19.0,15,0.00,,,0.00,896.000000,,2013-03-10 22:12:00,
2013-03-10 15:22:00,75.0,24.0,-100.00,North,356,11.0,19.0,15,0.00,,,0.00,896.000000,,2013-03-10 22:22:00,
2013-03-10 15:32:00,75.0,24.0,-100.00,North,356,11.0,19.0,15,0.00,,,0.00,896.000000,,2013-03-10 22:32:00,
2013-03-10 15:42:00,75.0,24.0,-100.00,North,356,11.0,19.0,15,0.00,,,0.00,896.000000,,2013-03-10 22:42:00,
2013-03-10 16:12:00,76.0,23.0,-100.00,NNW,343,11.0,21.0,14,0.00,,,0.00,742.000000,,2013-03-10 23:12:00,
2013-03-10 16:22:00,76.0,23.0,-100.00,NNW,343,11.0,21.0,14,0.00,,,0.00,742.000000,,2013-03-10 23:22:00,
2013-03-10 16:32:00,76.0,23.0,-100.00,NNW,343,11.0,21.0,14,0.00,,,0.00,742.000000,,2013-03-10 23:32:00,
2013-03-10 16:42:00,76.0,23.0,-100.00,NNW,343,11.0,21.0,14,0.00,,,0.00,742.000000,,2013-03-10 23:42:00,
2013-03-10 17:12:00,75.0,24.0,-100.00,North,353,9.0,17.0,15,0.00,,,-99.99,529.000000,,2013-03-11 00:12:00,
2013-03-10 17:22:00,75.0,24.0,-100.00,North,353,9.0,17.0,15,0.00,,,-99.99,529.000000,,2013-03-11 00:22:00,
2013-03-10 17:32:00,75.0,24.0,-100.00,North,353,9.0,17.0,15,0.00,,,-99.99,529.000000,,2013-03-11 00:32:00,
2013-03-10 17:42:00,75.0,24.0,-100.00,North,353,9.0,17.0,15,0.00,,,-99.99,529.000000,,2013-03-11 00:42:00,
2013-03-10 18:12:00,75.0,24.0,-100.00,North,11,7.0,15.0,15,0.00,,,0.00,286.000000,,2013-03-11 01:12:00,
2013-03-10 18:22:00,75.0,24.0,-100.00,North,11,7.0,15.0,15,0.00,,,0.00,286.000000,,2013-03-11 01:22:00,
2013-03-10 18:32:00,75.0,24.0,-100.00,North,11,7.0,15.0,15,0.00,,,0.00,286.000000,,2013-03-11 01:32:00,
2013-03-10 18:42:00,75.0,24.0,-100.00,North,11,7.0,15.0,15,0.00,,,0.00,286.000000,,2013-03-11 01:42:00,
2013-03-10 19:12:00,70.0,28.0,-100.00,North,8,3.0,11.0,21,0.00,,,0.00,58.000000,,2013-03-11 02:12:00,
2013-03-10 19:22:00,70.0,28.0,-100.00,North,8,3.0,11.0,21,0.00,,,0.00,58.000000,,2013-03-11 02:22:00,
2013-03-10 19:32:00,70.0,28.0,-100.00,North,8,3.0,11.0,21,0.00,,,0.00,58.000000,,2013-03-11 02:32:00,
2013-03-10 19:42:00,70.0,28.0,-100.00,North,8,3.0,11.0,21,0.00,,,0.00,58.000000,,2013-03-11 02:42:00,
2013-03-10 20:12:00,58.0,31.0,-100.00,WNW,289,2.0,5.0,36,0.00,,,-99.99,0.000000,,2013-03-11 03:12:00,
2013-03-10 20:22:00,58.0,31.0,-100.00,WNW,289,2.0,5.0,36,0.00,,,-99.99,0.000000,,2013-03-11 03:22:00,
2013-03-10 21:12:00,56.0,31.0,-100.00,WNW,288,3.0,5.0,38,-99.99,,,0.00,0.000000,,2013-03-11 04:12:00,
2013-03-10 21:22:00,56.0,31.0,-100.00,WNW,288,3.0,5.0,38,-99.99,,,0.00,0.000000,,2013-03-11 04:22:00,
2013-03-10 22:12:00,52.0,29.0,-100.00,NNW,334,3.0,5.0,41,-99.99,,,0.00,0.000000,,2013-03-11 05:12:00,
2013-03-10 22:22:00,52.0,29.0,-100.00,NNW,334,3.0,5.0,41,-99.99,,,0.00,0.000000,,2013-03-11 05:22:00,
2013-03-10 23:12:00,51.0,30.0,-100.00,NE,40,4.0,6.0,44,-99.99,,,0.00,0.000000,,2013-03-11 06:12:00,
2013-03-10 23:22:00,51.0,30.0,-100.00,NE,40,4.0,6.0,44,-99.99,,,0.00,0.000000,,2013-03-11 06:22:00,
2013-03-10 23:42:00,51.0,30.0,-100.00,NE,40,4.0,6.0,44,-99.99,,,0.00,0.000000,,2013-03-11 06:42:00,